EDT,Max TemperatureF,Mean TemperatureF,Min TemperatureF,Max Dew PointF,MeanDew PointF,Min DewpointF,Max Humidity, Mean Humidity, Min Humidity, Max Sea Level PressureIn, Mean Sea Level PressureIn, Min Sea Level PressureIn, Max VisibilityMiles, Mean VisibilityMiles, Min VisibilityMiles, Max Wind SpeedMPH, Mean Wind SpeedMPH, Max Gust SpeedMPH,PrecipitationIn, CloudCover, Events, WindDirDegrees
2013-10-1,77,64,53,63,57,54,100,86,52,30.06,30.01,29.97,10,5,0,14,6,23,0.01,2,Fog,202
2013-10-2,82,71,60,64,62,57,94,80,49,30.10,30.04,30.00,10,7,3,8,6,,0.00,3,,249
2013-10-3,77,70,63,68,65,61,100,85,65,30.05,30.01,29.95,10,7,2,14,6,17,0.05,4,Rain-Thunderstorm,208
2013-10-4,78,70,64,67,65,63,100,90,71,30.07,30.03,29.98,10,6,0,18,8,43,2.29,6,Fog-Rain-Thunderstorm,180
2013-10-5,78,71,64,70,67,64,100,90,76,30.06,29.99,29.88,10,8,3,10,6,,0.12,5,Rain-Thunderstorm,177
2013-10-6,73,65,55,67,61,53,100,90,73,29.90,29.75,29.67,10,8,1,24,12,32,0.69,7,Rain,215
2013-10-7,61,54,46,54,44,40,94,74,53,30.14,29.89,29.76,10,10,10,22,12,31,0.00,4,,248
2013-10-8,68,52,39,49,42,35,97,70,31,30.29,30.23,30.16,10,10,9,7,3,,0.00,0,,121
2013-10-9,71,58,46,48,45,41,90,67,35,30.28,30.23,30.19,10,10,10,10,7,,0.00,0,,88
2013-10-10,73,58,42,48,43,39,96,64,30,30.21,30.15,30.09,10,10,10,8,2,,0.00,0,,67
2013-10-11,75,60,44,54,48,43,100,75,35,30.12,30.08,30.04,10,8,0,9,2,,0.00,0,Fog,57
2013-10-12,77,62,48,60,53,48,100,82,46,30.10,30.07,30.03,10,6,0,9,1,,0.00,1,Fog,149
2013-10-13,72,63,52,57,48,37,100,68,31,30.32,30.23,30.10,10,8,4,14,5,,0.00,3,,329
2013-10-14,66,56,46,50,44,41,86,69,40,30.36,30.30,30.24,10,10,10,13,7,18,0.00,0,,33
2013-10-15,64,54,46,61,52,42,100,91,80,30.21,30.05,29.88,10,5,0,13,7,,0.09,5,Fog-Rain,144
2013-10-16,64,55,46,61,54,42,97,82,52,29.94,29.87,29.84,10,9,3,18,11,24,0.04,5,Rain,239
2013-10-17,52,46,39,47,44,39,97,87,76,29.93,29.87,29.81,10,9,4,16,7,23,0.03,6,Rain,233
2013-10-18,64,51,39,46,42,37,93,73,46,29.96,29.92,29.88,10,9,6,20,9,29,0.00,2,,226
2013-10-19,48,44,41,43,40,35,93,84,68,29.93,29.85,29.81,10,8,2,18,8,23,0.26,6,Rain,251
2013-10-20,62,50,39,42,38,35,83,64,39,29.96,29.92,29.89,10,10,10,17,11,23,0.00,4,,212
2013-10-21,63,54,41,48,42,35,94,71,52,29.93,29.89,29.83,10,10,10,18,14,26,0.03,4,Rain,240
2013-10-22,51,42,32,36,30,23,93,71,33,29.99,29.93,29.89,10,10,9,18,9,,0.02,4,Rain,267
2013-10-23,46,40,35,36,34,31,96,83,60,29.99,29.88,29.80,10,9,3,16,5,21,0.01,7,Rain,290
2013-10-24,45,38,32,33,31,29,92,75,58,30.22,30.07,29.97,10,10,10,17,11,23,0.00,6,,262
2013-10-25,48,37,28,33,28,24,92,74,42,30.38,30.30,30.21,10,10,10,15,8,20,0.00,3,,248
2013-10-26,48,42,36,37,30,25,76,62,50,30.18,29.99,29.86,10,10,10,23,14,32,0.00,5,,228
2013-10-27,54,43,33,35,32,30,92,71,43,30.08,30.05,30.02,10,10,10,14,4,,0.00,2,,219
2013-10-28,59,42,28,40,33,25,92,71,42,30.34,30.22,30.07,10,10,10,12,4,,0.00,1,,83
2013-10-29,55,46,37,40,38,35,96,74,47,30.40,30.32,30.22,10,10,7,9,5,,0.00,1,,77
2013-10-30,63,52,41,58,47,37,93,78,67,30.21,30.11,29.96,10,10,5,15,4,,0.00,6,,136
2013-10-31,64,62,59,63,59,55,100,90,75,29.92,29.53,29.22,10,6,1,30,17,52,1.13,8,Rain,194